Time;durP1;ratioP1;P1;durP2;ratioP2;P2;SDS_P1;SDS_P2;PMS_P1;PMS_P2;Temp;Humidity;BMP_temperature;BMP_pressure;BME280_temperature;BME280_humidity;BME280_pressure;Samples;Min_cycle;Max_cycle;Signal;HPM_P1;HPM_P2
2022/01/08 00:02:03;;;;;;;3.60;1.10;;;0.80;99.90;;;;;;5052723;28;20045;-79
2022/01/08 00:04:29;;;;;;;0.83;0.20;;;0.80;99.90;;;;;;5052835;28;20067;-81
2022/01/08 00:06:56;;;;;;;5.20;1.10;;;0.80;99.90;;;;;;5053008;28;20049;-82
2022/01/08 00:09:22;;;;;;;2.57;0.77;;;0.90;99.90;;;;;;5035163;28;20068;-81
2022/01/08 00:11:48;;;;;;;5.20;1.10;;;0.80;99.90;;;;;;5052685;28;20388;-78
2022/01/08 00:14:15;;;;;;;2.57;1.03;;;0.80;99.90;;;;;;5036061;28;20068;-77
2022/01/08 00:16:41;;;;;;;2.83;0.70;;;0.80;99.90;;;;;;5052501;28;20049;-81
2022/01/08 00:19:07;;;;;;;19.97;1.47;;;0.70;99.90;;;;;;5052361;28;20051;-81
2022/01/08 00:21:34;;;;;;;3.50;0.93;;;0.70;99.90;;;;;;5019515;28;20098;-78
2022/01/08 00:24:00;;;;;;;3.53;0.90;;;0.60;99.90;;;;;;5051927;28;20131;-81
2022/01/08 00:26:26;;;;;;;9.97;1.23;;;0.60;99.90;;;;;;5052420;28;20045;-77
2022/01/08 00:28:51;;;;;;;7.57;1.23;;;0.60;99.90;;;;;;5035684;28;20174;-78
2022/01/08 00:31:18;;;;;;;5.80;1.47;;;0.60;99.90;;;;;;5035893;28;20077;-81
2022/01/08 00:33:44;;;;;;;10.20;3.10;;;0.60;99.90;;;;;;5052159;28;20049;-78
2022/01/08 00:36:10;;;;;;;6.93;1.30;;;0.60;99.90;;;;;;5052243;28;20041;-81
2022/01/08 00:38:36;;;;;;;4.87;0.80;;;0.50;99.90;;;;;;5052166;28;20115;-78
2022/01/08 00:41:02;;;;;;;4.43;0.83;;;0.50;99.90;;;;;;5018996;28;20056;-79
2022/01/08 00:43:27;;;;;;;4.93;1.30;;;0.50;99.90;;;;;;5035569;28;20419;-80
2022/01/08 00:45:53;;;;;;;2.77;1.47;;;0.50;99.90;;;;;;5035324;28;20491;-79
2022/01/08 00:48:19;;;;;;;4.90;1.47;;;0.40;99.90;;;;;;5051837;28;20175;-81
2022/01/08 00:50:45;;;;;;;8.40;1.03;;;0.40;99.90;;;;;;5035588;28;20533;-77
2022/01/08 00:53:10;;;;;;;9.00;1.20;;;0.40;99.90;;;;;;5052512;28;20058;-81
2022/01/08 00:55:36;;;;;;;3.03;0.63;;;0.40;99.90;;;;;;5051959;28;20366;-81
2022/01/08 00:58:02;;;;;;;1.00;0.37;;;0.50;99.90;;;;;;5052111;28;20044;-81
2022/01/08 01:00:27;;;;;;;5.93;1.73;;;0.50;99.90;;;;;;5051632;28;20048;-81
2022/01/08 01:02:54;;;;;;;5.73;1.20;;;0.50;99.90;;;;;;5035380;28;20053;-78
2022/01/08 01:05:20;;;;;;;5.83;1.40;;;0.50;99.90;;;;;;5035373;28;20053;-81
2022/01/08 01:07:46;;;;;;;6.40;1.93;;;0.50;99.90;;;;;;5051736;28;20128;-81
2022/01/08 01:10:13;;;;;;;3.80;1.60;;;0.50;99.90;;;;;;5051734;28;20049;-77
2022/01/08 01:12:39;;;;;;;5.07;1.83;;;0.60;99.90;;;;;;5051698;28;20036;-81
2022/01/08 01:15:08;;;;;;;8.03;1.67;;;0.60;99.90;;;;;;5018861;28;20484;-81
2022/01/08 01:17:34;;;;;;;2.93;0.97;;;0.70;99.90;;;;;;5051568;28;20041;-81
2022/01/08 01:20:00;;;;;;;3.93;1.37;;;0.70;99.90;;;;;;5051493;28;20103;-78
2022/01/08 01:22:29;;;;;;;2.40;1.63;;;0.60;99.90;;;;;;5051517;28;20480;-78
2022/01/08 01:25:03;;;;;;;4.70;1.50;;;0.70;99.90;;;;;;5051024;28;20049;-78
2022/01/08 01:27:54;;;;;;;5.47;1.87;;;0.70;99.90;;;;;;5035000;28;20053;-81
2022/01/08 01:30:25;;;;;;;7.77;2.17;;;0.70;99.90;;;;;;5037875;28;20057;-81
2022/01/08 01:49:07;;;;;;;10.87;2.37;;;0.60;99.90;;;;;;5037819;28;20132;-77
2022/01/08 01:51:32;;;;;;;7.90;2.07;;;0.60;99.90;;;;;;5035004;28;20145;-78
2022/01/08 01:53:58;;;;;;;6.07;1.73;;;0.60;99.90;;;;;;5034526;28;20080;-78
2022/01/08 01:56:24;;;;;;;8.77;3.07;;;0.60;99.90;;;;;;5018267;28;20045;-78
2022/01/08 01:58:50;;;;;;;3.90;0.83;;;0.50;99.90;;;;;;5051053;28;20048;-78
2022/01/08 02:01:17;;;;;;;6.43;2.17;;;0.60;99.90;;;;;;5034701;28;20037;-80
2022/01/08 02:03:43;;;;;;;7.23;2.43;;;0.60;99.90;;;;;;5034386;28;20077;-78
2022/01/08 02:06:09;;;;;;;12.37;2.93;;;0.60;99.90;;;;;;5034636;28;20095;-78
2022/01/08 02:08:38;;;;;;;5.83;2.00;;;0.60;99.90;;;;;;5034538;28;20049;-78
2022/01/08 02:11:04;;;;;;;2.73;1.37;;;0.50;99.90;;;;;;5034788;28;20041;-81
2022/01/08 02:13:31;;;;;;;8.03;2.13;;;0.50;99.90;;;;;;5051082;28;20037;-81
2022/01/08 02:16:00;;;;;;;6.83;1.87;;;0.50;99.90;;;;;;5034548;28;20056;-78
2022/01/08 02:18:26;;;;;;;5.67;1.57;;;0.50;99.90;;;;;;5034836;28;20504;-78
2022/01/08 02:20:52;;;;;;;6.87;1.33;;;0.50;99.90;;;;;;5034370;28;20049;-78
2022/01/08 02:23:18;;;;;;;2.70;0.70;;;0.50;99.90;;;;;;5034612;28;20041;-81
2022/01/08 02:25:44;;;;;;;4.43;1.03;;;0.60;99.90;;;;;;5033987;28;20199;-81
2022/01/08 02:28:10;;;;;;;2.70;1.00;;;0.40;99.90;;;;;;5034222;28;20103;-81
2022/01/08 02:30:36;;;;;;;3.70;1.13;;;0.70;99.90;;;;;;5034200;28;20045;-81
2022/01/08 02:33:02;;;;;;;1.43;0.63;;;0.70;99.90;;;;;;5053840;28;20045;-81
2022/01/08 02:35:27;;;;;;;5.33;1.83;;;0.80;99.90;;;;;;5038204;28;20102;-81
2022/01/08 02:37:53;;;;;;;1.43;0.60;;;0.90;99.90;;;;;;5021402;28;20077;-79
2022/01/08 02:40:21;;;;;;;2.93;1.50;;;0.90;99.90;;;;;;5021556;28;20045;-82
2022/01/08 02:43:00;;;;;;;7.60;1.40;;;1.00;99.90;;;;;;5037683;28;20127;-81
2022/01/08 02:45:27;;;;;;;5.80;1.90;;;0.90;99.90;;;;;;5038733;28;20080;-81
2022/01/08 02:47:54;;;;;;;2.57;1.00;;;0.80;99.90;;;;;;5054143;28;20045;-81
2022/01/08 02:50:20;;;;;;;4.00;1.13;;;0.80;99.90;;;;;;5037837;28;20049;-79
2022/01/08 02:52:46;;;;;;;10.13;1.60;;;0.60;99.90;;;;;;5054040;28;20048;-82
2022/01/08 02:55:20;;;;;;;5.67;1.53;;;0.50;99.90;;;;;;5037613;28;20049;-82
2022/01/08 02:57:46;;;;;;;2.97;0.93;;;0.40;99.90;;;;;;5037664;28;20403;-78
2022/01/08 03:00:15;;;;;;;11.40;1.30;;;0.40;99.90;;;;;;5053993;28;20071;-78
2022/01/08 03:02:50;;;;;;;11.10;1.63;;;0.30;99.90;;;;;;5054000;28;20047;-81
2022/01/08 03:05:16;;;;;;;3.13;0.90;;;0.30;99.90;;;;;;5054124;28;20049;-78
2022/01/08 03:07:44;;;;;;;4.30;1.23;;;0.20;99.90;;;;;;5037250;28;20044;-78
2022/01/08 03:10:14;;;;;;;4.30;1.17;;;0.20;99.90;;;;;;5053874;28;20041;-81
2022/01/08 03:12:43;;;;;;;4.77;0.80;;;0.10;99.90;;;;;;5054095;28;20475;-78
2022/01/08 03:15:21;;;;;;;3.70;1.13;;;0.20;99.90;;;;;;5053900;28;20045;-78
2022/01/08 03:17:48;;;;;;;4.17;1.53;;;0.20;99.90;;;;;;5053914;28;20105;-78
2022/01/08 03:20:15;;;;;;;5.83;1.13;;;0.10;99.90;;;;;;5037123;28;20045;-78
2022/01/08 03:22:44;;;;;;;2.80;0.67;;;0.10;99.90;;;;;;5036945;28;20052;-79
2022/01/08 03:25:10;;;;;;;8.57;1.63;;;0.10;99.90;;;;;;5053095;28;20068;-78
2022/01/08 03:27:37;;;;;;;4.77;0.80;;;0.00;99.90;;;;;;5053509;28;20124;-78
2022/01/08 03:30:07;;;;;;;6.40;1.00;;;0.00;99.90;;;;;;5053434;28;20395;-78
2022/01/08 03:32:33;;;;;;;4.10;0.60;;;0.00;99.90;;;;;;5036823;28;20049;-82
2022/01/08 03:34:59;;;;;;;4.27;0.53;;;0.00;99.90;;;;;;5053392;28;20045;-81
2022/01/08 03:37:25;;;;;;;6.53;1.00;;;-0.10;99.90;;;;;;5036789;28;20045;-81
2022/01/08 03:39:50;;;;;;;4.10;0.70;;;0.00;99.90;;;;;;5036888;28;20398;-78
2022/01/08 03:42:16;;;;;;;7.53;0.60;;;0.00;99.90;;;;;;5020232;28;20186;-78
2022/01/08 03:44:42;;;;;;;10.83;1.33;;;-0.10;99.90;;;;;;5053086;28;20178;-81
2022/01/08 03:49:52;;;;;;;2.50;0.40;;;-0.10;99.90;;;;;;5039321;28;20083;-81
2022/01/08 03:52:17;;;;;;;2.17;0.60;;;0.00;99.90;;;;;;5053403;28;20053;-80
2022/01/08 03:54:43;;;;;;;3.73;0.50;;;-0.10;99.90;;;;;;5052976;28;20041;-79
2022/01/08 03:57:09;;;;;;;6.00;0.70;;;0.00;99.90;;;;;;5052912;28;20045;-81
2022/01/08 03:59:35;;;;;;;6.37;0.90;;;-0.10;99.90;;;;;;5052983;28;20517;-78
2022/01/08 04:02:01;;;;;;;9.03;0.93;;;0.00;99.90;;;;;;5036271;28;20045;-82
2022/01/08 04:04:27;;;;;;;0.83;0.30;;;0.00;99.90;;;;;;5052607;28;20499;-81
2022/01/08 04:06:52;;;;;;;3.47;0.20;;;0.00;99.90;;;;;;5036262;28;20458;-77
2022/01/08 04:09:18;;;;;;;4.17;0.43;;;0.10;99.90;;;;;;5036068;28;20075;-77
2022/01/08 04:11:45;;;;;;;1.63;0.53;;;0.20;99.90;;;;;;5036139;28;20048;-80
2022/01/08 04:14:12;;;;;;;2.40;1.03;;;0.30;99.90;;;;;;5052810;28;20041;-78
2022/01/08 04:16:42;;;;;;;4.17;0.60;;;0.50;99.90;;;;;;5036287;28;20045;-78
2022/01/08 04:19:08;;;;;;;3.03;0.57;;;0.60;99.90;;;;;;5052375;28;20083;-78
2022/01/08 04:24:03;;;;;;;3.40;0.83;;;0.70;99.90;;;;;;5052243;28;20506;-79
2022/01/08 04:26:29;;;;;;;0.77;0.27;;;0.90;99.90;;;;;;5052428;28;20093;-81
2022/01/08 04:28:55;;;;;;;7.30;0.90;;;0.90;99.90;;;;;;5035631;28;20542;-78
2022/01/08 04:31:24;;;;;;;2.50;0.83;;;1.00;99.90;;;;;;5035668;28;20067;-81
2022/01/08 04:33:51;;;;;;;3.33;0.63;;;1.10;99.90;;;;;;5052366;28;20558;-81
2022/01/08 04:36:17;;;;;;;0.50;0.23;;;1.20;99.90;;;;;;5035544;28;20159;-81
2022/01/08 04:38:43;;;;;;;3.63;0.30;;;1.20;99.90;;;;;;5035666;28;20037;-78
2022/01/08 04:41:09;;;;;;;2.23;0.40;;;1.20;99.90;;;;;;5035751;28;20063;-79
2022/01/08 04:43:37;;;;;;;3.83;0.53;;;1.20;99.90;;;;;;5035376;28;20040;-81
2022/01/08 04:46:06;;;;;;;2.20;0.30;;;1.20;99.90;;;;;;5052080;28;20040;-82
2022/01/08 04:48:32;;;;;;;2.83;0.20;;;1.20;99.90;;;;;;5035557;28;20387;-78
2022/01/08 04:50:57;;;;;;;7.03;0.60;;;1.30;99.90;;;;;;5052076;28;20136;-78
2022/01/08 04:53:23;;;;;;;3.23;0.40;;;1.20;99.90;;;;;;5019095;28;20049;-81
2022/01/08 04:55:49;;;;;;;1.23;0.33;;;1.30;99.90;;;;;;5051617;28;20041;-78
2022/01/08 04:58:14;;;;;;;1.77;0.47;;;1.30;99.90;;;;;;5035197;28;20088;-81
2022/01/08 05:00:40;;;;;;;0.43;0.20;;;1.30;99.90;;;;;;5035223;28;20059;-78
2022/01/08 05:03:06;;;;;;;6.27;0.83;;;1.20;99.90;;;;;;5051755;28;20036;-81
2022/01/08 05:05:31;;;;;;;2.93;0.40;;;1.20;99.90;;;;;;5035226;28;20048;-82
2022/01/08 05:07:57;;;;;;;4.07;0.63;;;1.20;99.90;;;;;;5035372;28;20084;-81
2022/01/08 05:10:23;;;;;;;2.70;0.37;;;1.20;99.90;;;;;;5051754;28;20045;-77
2022/01/08 05:12:49;;;;;;;7.07;1.03;;;1.30;99.90;;;;;;5035285;28;20396;-81
2022/01/08 05:15:16;;;;;;;2.87;0.50;;;1.20;99.90;;;;;;5051693;28;20052;-78
2022/01/08 05:17:43;;;;;;;5.43;0.57;;;1.20;99.90;;;;;;5051491;28;20098;-82
2022/01/08 05:20:12;;;;;;;6.17;0.50;;;1.20;99.90;;;;;;5051583;28;20049;-78
2022/01/08 05:22:51;;;;;;;4.80;0.77;;;1.20;99.90;;;;;;5051458;28;20033;-78
2022/01/08 05:25:20;;;;;;;2.90;0.83;;;1.20;99.90;;;;;;5034620;28;20061;-81
2022/01/08 05:27:48;;;;;;;9.43;1.33;;;1.10;99.90;;;;;;5051686;28;20476;-78
2022/01/08 05:30:15;;;;;;;5.07;0.70;;;1.00;99.90;;;;;;5018607;28;20048;-81
2022/01/08 05:32:41;;;;;;;8.23;1.20;;;0.90;99.90;;;;;;5051401;28;20084;-81
2022/01/08 05:35:08;;;;;;;7.57;0.77;;;0.80;99.90;;;;;;5034872;28;20076;-82
2022/01/08 05:37:33;;;;;;;7.87;0.93;;;0.80;99.90;;;;;;5051691;28;20049;-80
2022/01/08 05:39:59;;;;;;;6.47;0.53;;;0.80;99.90;;;;;;5035150;28;20301;-80
2022/01/08 05:42:25;;;;;;;0.40;0.20;;;0.80;99.90;;;;;;5034880;28;20049;-79
2022/01/08 05:44:51;;;;;;;3.87;0.80;;;0.80;99.90;;;;;;5018072;28;20041;-78
2022/01/08 05:47:20;;;;;;;5.97;1.00;;;0.90;99.90;;;;;;5034747;28;20413;-78
2022/01/08 05:49:46;;;;;;;1.13;0.40;;;1.00;99.90;;;;;;5034877;28;20480;-78
2022/01/08 05:52:11;;;;;;;3.90;0.70;;;1.00;99.90;;;;;;5034629;28;20095;-78
2022/01/08 05:54:37;;;;;;;10.87;1.00;;;1.10;99.90;;;;;;5034746;28;20127;-78
2022/01/08 05:57:03;;;;;;;9.80;0.93;;;1.10;99.90;;;;;;5051290;28;20071;-81
2022/01/08 05:59:29;;;;;;;2.93;0.50;;;1.00;99.90;;;;;;5034651;28;20468;-82
2022/01/08 06:01:55;;;;;;;7.33;1.13;;;0.80;99.90;;;;;;5051489;28;20049;-79
2022/01/08 06:04:21;;;;;;;8.23;0.87;;;0.70;99.90;;;;;;5051026;28;20052;-82
2022/01/08 06:06:47;;;;;;;8.17;0.80;;;0.60;99.90;;;;;;5035611;28;20418;-81
2022/01/08 06:09:13;;;;;;;4.57;0.87;;;0.50;99.90;;;;;;5054929;28;20137;-81
2022/01/08 06:11:38;;;;;;;5.40;0.63;;;0.40;99.90;;;;;;5021882;28;20207;-82
2022/01/08 06:14:04;;;;;;;7.30;0.90;;;0.40;99.90;;;;;;5038546;28;20048;-81
2022/01/08 06:16:34;;;;;;;4.93;0.57;;;0.20;99.90;;;;;;5055110;28;20068;-78
2022/01/08 06:19:02;;;;;;;4.47;0.80;;;0.10;99.90;;;;;;5038497;28;20049;-78
2022/01/08 06:21:28;;;;;;;5.07;1.27;;;0.00;99.90;;;;;;5038438;28;20403;-78
2022/01/08 06:23:54;;;;;;;2.90;0.97;;;-0.10;99.90;;;;;;5054270;28;20045;-82
2022/01/08 06:26:20;;;;;;;3.23;0.70;;;-0.20;99.90;;;;;;5054695;28;20508;-81
2022/01/08 06:28:46;;;;;;;6.10;1.00;;;-0.30;99.90;;;;;;5054687;28;20384;-81
2022/01/08 06:31:11;;;;;;;15.33;3.27;;;-0.40;99.90;;;;;;5054574;28;20052;-82
2022/01/08 06:33:37;;;;;;;9.57;1.43;;;-0.30;99.90;;;;;;5038062;28;20041;-82
2022/01/08 06:36:03;;;;;;;9.53;1.80;;;-0.20;99.90;;;;;;5037841;28;20045;-79
2022/01/08 06:38:28;;;;;;;6.07;2.13;;;-0.20;99.90;;;;;;5037873;28;20044;-78
2022/01/08 06:40:54;;;;;;;8.33;2.10;;;-0.20;99.90;;;;;;5021135;28;20416;-82
2022/01/08 06:43:20;;;;;;;6.97;2.03;;;-0.20;99.90;;;;;;5054298;28;20052;-78
2022/01/08 06:45:46;;;;;;;6.87;1.97;;;-0.20;99.90;;;;;;5054383;28;20045;-78
2022/01/08 06:48:11;;;;;;;11.47;2.83;;;-0.20;99.90;;;;;;5037808;28;20041;-82
2022/01/08 06:50:37;;;;;;;8.87;2.70;;;-0.20;99.90;;;;;;5054206;28;20045;-81
2022/01/08 06:53:03;;;;;;;9.13;2.13;;;-0.20;99.90;;;;;;5037907;28;20114;-79
2022/01/08 06:55:29;;;;;;;5.67;1.87;;;-0.20;99.90;;;;;;5054224;28;20048;-81
2022/01/08 06:57:55;;;;;;;11.13;2.57;;;-0.20;99.90;;;;;;5054158;28;20048;-80
2022/01/08 07:00:21;;;;;;;7.43;2.70;;;-0.20;99.90;;;;;;5054372;28;20052;-81
2022/01/08 07:02:47;;;;;;;9.47;2.47;;;-0.20;99.90;;;;;;5037771;28;20405;-80
2022/01/08 07:05:13;;;;;;;5.47;2.13;;;-0.30;99.90;;;;;;5037523;28;20111;-81
2022/01/08 07:07:39;;;;;;;12.57;3.30;;;-0.10;99.90;;;;;;5037349;28;20087;-80
2022/01/08 07:10:05;;;;;;;8.67;3.37;;;-0.30;99.90;;;;;;5020587;28;20045;-81
2022/01/08 07:12:31;;;;;;;5.27;1.63;;;-0.30;99.90;;;;;;5020977;28;20381;-80
2022/01/08 07:14:56;;;;;;;2.33;1.83;;;-0.30;99.90;;;;;;5054005;28;20055;-78
2022/01/08 07:17:22;;;;;;;4.90;2.53;;;-0.30;99.90;;;;;;5020348;28;20048;-81
2022/01/08 07:19:48;;;;;;;12.57;3.63;;;-0.20;99.90;;;;;;5020860;28;20435;-78
2022/01/08 07:22:13;;;;;;;12.93;4.63;;;-0.30;99.90;;;;;;5020694;28;20052;-80
2022/01/08 07:24:39;;;;;;;14.70;5.10;;;-0.30;99.90;;;;;;5036757;28;20396;-78
2022/01/08 07:27:05;;;;;;;15.60;3.87;;;-0.30;99.90;;;;;;5020538;28;20057;-81
2022/01/08 07:29:30;;;;;;;9.73;3.93;;;-0.30;99.90;;;;;;5020460;28;20041;-79
2022/01/08 07:31:56;;;;;;;15.73;4.60;;;-0.30;99.90;;;;;;5036756;28;20045;-78
2022/01/08 07:34:22;;;;;;;13.60;4.03;;;-0.30;99.90;;;;;;5053457;28;20088;-78
2022/01/08 07:36:48;;;;;;;14.07;5.67;;;-0.40;99.90;;;;;;5053313;28;20120;-79
2022/01/08 07:39:14;;;;;;;17.77;4.80;;;-0.40;99.90;;;;;;5053233;28;20132;-78
2022/01/08 07:41:40;;;;;;;11.27;5.37;;;-0.50;99.90;;;;;;5053499;28;20049;-81
2022/01/08 07:44:06;;;;;;;16.63;5.23;;;-0.50;99.90;;;;;;5036510;28;20045;-81
2022/01/08 07:46:31;;;;;;;15.77;5.07;;;-0.50;99.90;;;;;;5036914;28;20479;-78
2022/01/08 07:48:57;;;;;;;9.90;4.23;;;-0.40;99.90;;;;;;5020063;28;20041;-81
2022/01/08 07:51:23;;;;;;;10.90;4.37;;;-0.30;99.90;;;;;;5052912;28;20132;-80
2022/01/08 07:53:48;;;;;;;10.53;4.13;;;-0.40;99.90;;;;;;5052812;28;20044;-81
2022/01/08 07:56:14;;;;;;;10.60;3.60;;;-0.40;99.90;;;;;;5036711;28;20176;-80
2022/01/08 07:58:40;;;;;;;12.90;4.60;;;-0.40;99.90;;;;;;5036542;28;20053;-80
2022/01/08 08:01:06;;;;;;;9.07;3.67;;;-0.30;99.90;;;;;;5019859;28;20033;-78
2022/01/08 08:03:32;;;;;;;14.93;4.13;;;-0.40;99.90;;;;;;5036268;28;20033;-81
2022/01/08 08:05:57;;;;;;;9.20;4.17;;;-0.30;99.90;;;;;;5052602;28;20090;-80
2022/01/08 08:08:23;;;;;;;18.57;4.20;;;-0.40;99.90;;;;;;5036276;28;20045;-78
2022/01/08 08:10:50;;;;;;;10.73;4.10;;;-0.40;99.90;;;;;;5035947;28;20488;-77
2022/01/08 08:13:17;;;;;;;10.40;4.13;;;-0.40;99.90;;;;;;5036053;28;20203;-78
2022/01/08 08:15:43;;;;;;;10.10;4.80;;;-0.40;99.90;;;;;;5052686;28;20052;-78
2022/01/08 08:18:09;;;;;;;8.07;3.13;;;-0.30;99.90;;;;;;5035936;28;20045;-78
2022/01/08 08:20:34;;;;;;;10.57;4.43;;;-0.20;99.90;;;;;;5036109;28;20051;-78
2022/01/08 08:23:00;;;;;;;9.10;3.73;;;-0.10;99.90;;;;;;5019413;28;20074;-78
2022/01/08 08:25:26;;;;;;;15.00;4.00;;;0.00;99.90;;;;;;5018853;28;20478;-78
2022/01/08 08:27:51;;;;;;;12.17;4.97;;;0.20;99.90;;;;;;5036124;28;20516;-79
2022/01/08 08:30:18;;;;;;;15.97;5.17;;;0.30;99.90;;;;;;5035108;28;20102;-78
2022/01/08 08:32:44;;;;;;;14.23;4.73;;;0.30;99.90;;;;;;5052650;28;20232;-78
2022/01/08 08:35:10;;;;;;;9.67;4.10;;;0.30;99.90;;;;;;5052316;28;20048;-79
2022/01/08 08:37:37;;;;;;;16.43;5.23;;;0.40;99.90;;;;;;5052459;28;20503;-78
2022/01/08 08:40:07;;;;;;;16.27;5.00;;;0.40;99.90;;;;;;5035813;28;20460;-77
2022/01/08 08:42:33;;;;;;;8.53;4.27;;;0.40;99.90;;;;;;5019108;28;20083;-77
2022/01/08 08:44:59;;;;;;;16.53;4.33;;;0.40;99.90;;;;;;5052118;28;20076;-79
2022/01/08 08:47:24;;;;;;;14.10;4.50;;;0.50;99.90;;;;;;5019405;28;20515;-79
2022/01/08 08:49:50;;;;;;;19.00;4.43;;;0.50;99.90;;;;;;5035773;28;20088;-81
2022/01/08 08:52:16;;;;;;;13.67;4.17;;;0.50;99.90;;;;;;5051965;28;20048;-80
2022/01/08 08:54:43;;;;;;;6.30;2.63;;;0.50;99.90;;;;;;5018926;28;20151;-77
2022/01/08 08:57:09;;;;;;;14.30;4.93;;;0.50;99.90;;;;;;5019359;28;20041;-81
2022/01/08 08:59:36;;;;;;;13.27;3.97;;;0.50;99.90;;;;;;5035103;28;20048;-78
2022/01/08 09:02:02;;;;;;;10.90;4.27;;;0.60;99.90;;;;;;5035273;28;20044;-81
2022/01/08 09:04:28;;;;;;;8.70;3.40;;;0.70;99.90;;;;;;5051845;28;20385;-81
2022/01/08 09:06:56;;;;;;;5.33;2.73;;;0.70;99.90;;;;;;5052050;28;20052;-79
2022/01/08 09:09:23;;;;;;;9.90;3.70;;;0.80;99.90;;;;;;5019196;28;20040;-81
2022/01/08 09:11:48;;;;;;;10.83;3.73;;;0.90;99.90;;;;;;5051628;28;20080;-77
2022/01/08 09:14:14;;;;;;;8.57;3.50;;;0.90;99.90;;;;;;5051740;28;20084;-78
2022/01/08 09:16:47;;;;;;;13.27;3.73;;;1.10;99.90;;;;;;5035172;28;20107;-81
2022/01/08 09:19:13;;;;;;;15.70;4.63;;;1.10;99.90;;;;;;5051778;28;20399;-78
2022/01/08 09:21:39;;;;;;;10.90;4.17;;;1.10;99.90;;;;;;5051539;28;20140;-78
2022/01/08 09:24:05;;;;;;;11.27;3.40;;;1.20;99.90;;;;;;5034668;28;20136;-81
2022/01/08 09:26:30;;;;;;;12.43;3.60;;;1.20;99.90;;;;;;5034781;28;20332;-78
2022/01/08 09:28:56;;;;;;;10.30;3.37;;;1.50;99.90;;;;;;5034779;28;20503;-81
2022/01/08 09:31:22;;;;;;;9.63;3.70;;;1.30;99.90;;;;;;5051484;28;20499;-77
2022/01/08 09:33:47;;;;;;;9.70;3.33;;;1.40;99.90;;;;;;5034665;28;20064;-78
2022/01/08 09:36:13;;;;;;;5.77;2.90;;;1.40;99.90;;;;;;5018473;28;20104;-78
2022/01/08 09:38:39;;;;;;;12.13;3.13;;;1.30;99.90;;;;;;5034701;28;20403;-79
2022/01/08 09:41:05;;;;;;;5.50;2.80;;;1.50;99.90;;;;;;5036558;28;20076;-79
2022/01/08 09:43:32;;;;;;;4.30;2.33;;;1.30;99.90;;;;;;5022630;28;20468;-81
2022/01/08 09:45:58;;;;;;;10.80;2.30;;;1.30;99.90;;;;;;5055220;28;20049;-78
2022/01/08 09:48:24;;;;;;;4.50;1.73;;;1.30;99.90;;;;;;5038758;28;20501;-78
2022/01/08 09:50:50;;;;;;;8.70;2.90;;;1.40;99.90;;;;;;5055286;28;20045;-78
2022/01/08 09:53:16;;;;;;;8.17;2.63;;;1.50;99.90;;;;;;5038641;28;20041;-81
2022/01/08 09:55:42;;;;;;;5.90;2.50;;;1.60;99.90;;;;;;5055543;28;20175;-81
2022/01/08 09:58:07;;;;;;;12.33;2.90;;;1.60;99.90;;;;;;5055378;28;20090;-78
2022/01/08 10:00:34;;;;;;;17.87;3.30;;;1.70;99.90;;;;;;5038767;28;20492;-82
2022/01/08 10:03:21;;;;;;;5.73;2.40;;;1.80;99.90;;;;;;5055106;28;20040;-81
2022/01/08 10:05:56;;;;;;;12.70;2.30;;;1.80;99.90;;;;;;5038275;28;20052;-81
2022/01/08 10:08:30;;;;;;;8.00;2.63;;;1.80;99.90;;;;;;5055084;28;20302;-82
2022/01/08 10:11:01;;;;;;;8.37;2.07;;;1.80;99.90;;;;;;5055130;28;20502;-78
2022/01/08 10:13:32;;;;;;;8.00;1.93;;;1.90;99.90;;;;;;5038365;28;20077;-81
2022/01/08 10:18:44;;;;;;;11.67;2.77;;;1.90;99.90;;;;;;5054754;28;20137;-78
2022/01/08 10:21:34;;;;;;;10.10;2.90;;;1.90;99.90;;;;;;5038657;28;20671;-81
2022/01/08 10:24:08;;;;;;;7.53;3.30;;;2.00;99.90;;;;;;5035493;28;20407;-79
2022/01/08 10:26:36;;;;;;;3.27;1.83;;;2.00;99.90;;;;;;5055023;28;20053;-82
2022/01/08 10:29:09;;;;;;;6.37;2.00;;;2.10;99.90;;;;;;5054739;28;20045;-78
2022/01/08 10:31:46;;;;;;;8.70;3.17;;;2.20;99.90;;;;;;5037908;28;20084;-78
2022/01/08 10:34:15;;;;;;;8.03;3.57;;;2.20;99.90;;;;;;5038584;28;20554;-78
2022/01/08 10:36:49;;;;;;;10.53;3.43;;;2.20;99.90;;;;;;5021409;28;20041;-78
2022/01/08 10:39:23;;;;;;;10.67;3.17;;;2.30;99.90;;;;;;5054400;28;20052;-82
2022/01/08 10:41:52;;;;;;;10.23;3.23;;;2.40;99.90;;;;;;5054483;28;20124;-78
2022/01/08 10:44:26;;;;;;;11.73;2.97;;;2.40;99.90;;;;;;5054134;28;20041;-79
2022/01/08 10:47:07;;;;;;;9.33;2.60;;;2.40;99.90;;;;;;5037692;28;20098;-82
2022/01/08 10:49:41;;;;;;;10.47;2.93;;;2.50;99.90;;;;;;5054331;28;20052;-82
2022/01/08 10:52:16;;;;;;;7.43;2.20;;;2.50;99.90;;;;;;5036861;28;20056;-78
2022/01/08 10:54:47;;;;;;;10.80;3.27;;;2.60;99.90;;;;;;5037613;28;20041;-78
2022/01/08 10:57:14;;;;;;;8.30;2.77;;;2.60;99.90;;;;;;5037652;28;20392;-82
2022/01/08 10:59:41;;;;;;;9.03;3.23;;;2.60;99.90;;;;;;5054026;28;20051;-81
2022/01/08 11:02:11;;;;;;;7.50;3.43;;;2.60;99.90;;;;;;5037476;28;20500;-81
2022/01/08 11:04:43;;;;;;;20.13;7.53;;;2.60;99.90;;;;;;5054087;28;20132;-82
2022/01/08 11:07:29;;;;;;;7.50;5.37;;;2.60;99.90;;;;;;5037325;28;20086;-78
2022/01/08 11:10:19;;;;;;;19.07;9.87;;;2.70;99.90;;;;;;5053489;28;20053;-79
2022/01/08 11:12:47;;;;;;;16.57;4.90;;;2.70;99.90;;;;;;5040630;28;20037;-81
2022/01/08 11:17:50;;;;;;;10.10;4.23;;;2.80;99.90;;;;;;5053834;28;20052;-78
2022/01/08 11:20:18;;;;;;;11.97;6.43;;;2.80;99.90;;;;;;5053675;28;20041;-82
2022/01/08 11:22:52;;;;;;;5.90;4.07;;;2.90;99.90;;;;;;5053816;28;20048;-82
2022/01/08 11:25:27;;;;;;;14.67;5.47;;;2.90;99.90;;;;;;5036719;28;20065;-79
2022/01/08 11:28:08;;;;;;;6.57;3.70;;;3.00;99.90;;;;;;5036825;28;20136;-82
2022/01/08 11:30:37;;;;;;;9.37;3.03;;;3.00;99.90;;;;;;5036930;28;20052;-78
2022/01/08 11:33:09;;;;;;;7.17;3.33;;;3.00;99.90;;;;;;5036795;28;20048;-79
2022/01/08 11:35:37;;;;;;;7.75;2.67;;;3.00;99.90;;;;;;5053624;28;20056;-79
2022/01/08 11:38:08;;;;;;;5.32;2.88;;;3.00;99.90;;;;;;5037148;28;20403;-81
2022/01/08 11:40:37;;;;;;;5.18;2.03;;;3.10;99.90;;;;;;5053571;28;20077;-78
2022/01/08 11:43:05;;;;;;;8.33;3.17;;;3.20;99.90;;;;;;5053229;28;20045;-82
2022/01/08 11:45:34;;;;;;;6.43;3.45;;;3.10;99.90;;;;;;5053246;28;20107;-81
2022/01/08 11:48:05;;;;;;;3.90;2.47;;;3.20;99.90;;;;;;5053285;28;20253;-78
2022/01/08 11:50:32;;;;;;;5.67;2.57;;;3.20;99.90;;;;;;5036680;28;20070;-79
2022/01/08 11:53:27;;;;;;;8.77;3.40;;;3.20;99.90;;;;;;5036635;28;20574;-78
2022/01/08 11:55:58;;;;;;;5.50;2.13;;;3.20;99.90;;;;;;5053028;28;20128;-82
2022/01/08 11:58:26;;;;;;;13.90;3.67;;;3.20;99.90;;;;;;5053343;28;20090;-82
2022/01/08 12:01:00;;;;;;;12.25;2.80;;;3.20;99.90;;;;;;5052722;28;20052;-82
2022/01/08 12:03:32;;;;;;;2.65;2.05;;;3.30;99.90;;;;;;5036528;28;20506;-78
2022/01/08 12:06:19;;;;;;;3.45;2.05;;;3.30;99.90;;;;;;5052018;28;20507;-82
2022/01/08 12:09:23;;;;;;;3.90;2.05;;;3.20;99.90;;;;;;5052697;28;20056;-78
2022/01/08 12:12:03;;;;;;;15.25;2.70;;;3.20;99.90;;;;;;5052562;28;20053;-79
2022/01/08 12:14:43;;;;;;;7.68;2.72;;;3.20;99.90;;;;;;5052589;28;20037;-79
2022/01/08 12:17:14;;;;;;;4.47;1.73;;;3.20;99.90;;;;;;5052847;28;20049;-79
2022/01/08 12:20:00;;;;;;;6.45;2.88;;;3.20;99.90;;;;;;5052614;28;20049;-81
2022/01/08 12:22:26;;;;;;;9.18;3.88;;;3.30;99.90;;;;;;5019133;28;20057;-79
2022/01/08 12:24:53;;;;;;;5.20;1.92;;;3.30;99.90;;;;;;5052120;28;20580;-79
2022/01/08 12:27:34;;;;;;;4.57;2.22;;;3.30;99.90;;;;;;5035821;28;20101;-82
2022/01/08 12:30:16;;;;;;;5.28;2.97;;;3.30;99.90;;;;;;5035851;28;20049;-80
2022/01/08 12:32:47;;;;;;;10.15;3.53;;;3.30;99.90;;;;;;5052738;28;20045;-78
2022/01/08 12:35:16;;;;;;;8.50;5.05;;;3.30;99.90;;;;;;5036321;28;20045;-82
2022/01/08 12:37:45;;;;;;;8.23;3.40;;;3.30;99.90;;;;;;5052379;28;20246;-82
2022/01/08 12:40:30;;;;;;;6.75;2.95;;;3.30;99.90;;;;;;5052514;28;20534;-81
2022/01/08 12:42:57;;;;;;;7.70;3.78;;;3.30;99.90;;;;;;5035781;28;20496;-82
2022/01/08 12:45:34;;;;;;;9.40;4.32;;;3.30;99.90;;;;;;5052078;28;20076;-82
2022/01/08 12:48:00;;;;;;;7.50;4.38;;;3.20;99.90;;;;;;5052088;28;20049;-79
2022/01/08 12:50:42;;;;;;;9.80;4.20;;;3.20;99.90;;;;;;5035676;28;20407;-78
2022/01/08 12:53:14;;;;;;;10.60;4.80;;;3.30;99.90;;;;;;5051945;28;20076;-82
2022/01/08 12:55:42;;;;;;;8.15;4.18;;;3.30;99.90;;;;;;5035651;28;20396;-80
2022/01/08 12:58:16;;;;;;;12.32;5.38;;;3.40;99.90;;;;;;5051830;28;20071;-79
2022/01/08 13:01:08;;;;;;;9.50;4.40;;;3.30;99.90;;;;;;5051972;28;20174;-78
2022/01/08 13:03:40;;;;;;;7.20;3.72;;;3.30;99.90;;;;;;5035226;28;20102;-79
2022/01/08 13:06:12;;;;;;;9.57;4.53;;;3.30;99.90;;;;;;5051673;28;20131;-82
2022/01/08 13:08:39;;;;;;;5.22;3.70;;;3.30;99.90;;;;;;5035274;28;20446;-79
2022/01/08 13:11:07;;;;;;;7.40;3.95;;;3.30;99.90;;;;;;5051976;28;20053;-79
2022/01/08 13:13:44;;;;;;;7.57;5.03;;;3.30;99.90;;;;;;5034966;28;20049;-78
2022/01/08 13:16:13;;;;;;;7.95;5.70;;;3.30;99.90;;;;;;5051578;28;20411;-79
2022/01/08 13:18:39;;;;;;;11.23;5.57;;;3.10;99.90;;;;;;5018787;28;20499;-79
2022/01/08 13:21:07;;;;;;;9.32;5.40;;;3.30;99.90;;;;;;5051580;28;20131;-79
2022/01/08 13:23:43;;;;;;;14.50;6.40;;;3.30;99.90;;;;;;5018844;28;20088;-82
2022/01/08 13:26:10;;;;;;;13.98;7.10;;;3.30;99.90;;;;;;5051485;28;20449;-82